createdAt,value
2018-06-17T00:00:06.842Z,22.07
2018-06-17T00:01:44.003Z,22.01
2018-06-17T00:03:20.420Z,22.10
2018-06-17T00:05:00.723Z,22.12
2018-06-17T00:06:37.980Z,22.08
2018-06-17T00:08:14.772Z,22.09
2018-06-17T00:09:52.774Z,21.89
2018-06-17T00:11:29.562Z,21.70
2018-06-17T00:13:07.655Z,21.69
2018-06-17T00:14:44.015Z,21.72
2018-06-17T00:16:20.519Z,21.53
2018-06-17T00:17:57.191Z,21.17
2018-06-17T00:19:33.493Z,21.05
2018-06-17T00:21:11.132Z,20.92
2018-06-17T00:22:48.796Z,21.20
2018-06-17T00:24:25.764Z,21.17
2018-06-17T00:26:02.704Z,21.17
2018-06-17T00:27:39.025Z,21.21
2018-06-17T00:29:15.425Z,21.11
2018-06-17T00:30:57.486Z,21.06
2018-06-17T00:32:33.811Z,21.06
2018-06-17T00:34:10.044Z,21.12
2018-06-17T00:35:47.091Z,21.34
2018-06-17T00:37:23.747Z,21.52
2018-06-17T00:39:00.916Z,21.66
2018-06-17T00:40:37.211Z,21.58
2018-06-17T00:42:13.514Z,21.45
2018-06-17T00:45:20.903Z,21.13
2018-06-17T00:46:58.432Z,20.85
2018-06-17T00:48:35.135Z,20.64
2018-06-17T00:50:11.698Z,20.55
2018-06-17T00:51:48.004Z,20.65
2018-06-17T00:53:24.773Z,20.91
2018-06-17T00:55:01.663Z,20.99
2018-06-17T00:56:40.066Z,20.97
2018-06-17T00:58:16.671Z,20.72
2018-06-17T00:59:53.906Z,20.65
2018-06-17T01:01:31.171Z,20.54
2018-06-17T01:03:10.572Z,20.48
2018-06-17T01:04:46.858Z,20.55
2018-06-17T01:06:25.533Z,20.63
2018-06-17T01:08:02.212Z,20.72
2018-06-17T01:09:42.724Z,20.92
2018-06-17T01:11:19.899Z,20.86
2018-06-17T01:12:57.384Z,20.60
2018-06-17T01:14:34.696Z,20.42
2018-06-17T01:16:13.578Z,20.61
2018-06-17T01:17:49.768Z,20.96
2018-06-17T01:19:28.873Z,21.08
2018-06-17T01:21:07.880Z,21.16
2018-06-17T01:22:45.299Z,21.09
2018-06-17T01:24:24.580Z,20.95
2018-06-17T01:26:06.847Z,20.84
2018-06-17T01:27:43.706Z,20.44
2018-06-17T01:29:21.361Z,20.28
2018-06-17T01:30:57.955Z,20.09
2018-06-17T01:32:34.308Z,19.96
2018-06-17T01:34:10.571Z,19.88
2018-06-17T01:35:47.797Z,19.90
2018-06-17T01:37:25.606Z,20.07
2018-06-17T01:39:01.866Z,20.20
2018-06-17T01:40:39.554Z,20.48
2018-06-17T01:42:17.986Z,20.24
2018-06-17T01:43:57.469Z,20.11
2018-06-17T01:45:34.070Z,20.15
2018-06-17T01:47:11.453Z,20.26
2018-06-17T01:48:48.270Z,20.17
2018-06-17T01:50:25.115Z,19.97
2018-06-17T01:52:01.549Z,19.96
2018-06-17T01:53:38.674Z,20.12
2018-06-17T01:55:15.451Z,20.03
2018-06-17T01:56:52.268Z,19.90
2018-06-17T01:58:29.556Z,19.79
2018-06-17T02:00:06.667Z,19.55
2018-06-17T02:01:45.706Z,19.65
2018-06-17T02:03:27.148Z,19.75
2018-06-17T02:05:09.675Z,19.58
2018-06-17T02:06:51.469Z,19.63
2018-06-17T02:08:33.909Z,19.58
2018-06-17T02:10:15.648Z,19.46
2018-06-17T02:11:58.871Z,19.51
2018-06-17T02:13:36.808Z,19.59
2018-06-17T02:15:14.482Z,19.77
2018-06-17T02:16:51.673Z,19.86
2018-06-17T02:18:28.634Z,19.85
2018-06-17T02:20:05.117Z,19.83
2018-06-17T02:21:41.725Z,20.09
2018-06-17T02:23:18.368Z,20.32
2018-06-17T02:24:56.291Z,20.10
2018-06-17T02:26:33.223Z,19.95
2018-06-17T02:28:11.574Z,20.08
2018-06-17T02:29:49.572Z,19.93
2018-06-17T02:31:26.108Z,19.87
2018-06-17T02:33:07.692Z,19.93
2018-06-17T02:34:44.440Z,19.87
2018-06-17T02:36:21.655Z,19.93
2018-06-17T02:38:00.046Z,20.31
2018-06-17T02:39:37.875Z,20.52
2018-06-17T02:41:14.037Z,20.65
2018-06-17T02:42:50.602Z,20.78
2018-06-17T02:44:27.034Z,20.85
2018-06-17T02:46:08.852Z,20.77
2018-06-17T02:47:50.050Z,20.68
2018-06-17T02:49:31.390Z,20.63
2018-06-17T02:51:13.653Z,20.51
2018-06-17T02:52:55.170Z,20.15
2018-06-17T02:54:36.263Z,19.93
2018-06-17T02:56:12.732Z,19.86
2018-06-17T02:57:50.119Z,19.99
2018-06-17T02:59:29.795Z,20.30
2018-06-17T03:01:06.416Z,20.20
2018-06-17T03:02:43.165Z,20.39
2018-06-17T03:04:19.853Z,20.38
2018-06-17T03:05:57.007Z,20.24
2018-06-17T03:07:33.295Z,20.20
2018-06-17T03:09:11.301Z,20.47
2018-06-17T03:10:49.760Z,20.66
2018-06-17T03:12:28.151Z,20.65
2018-06-17T03:14:05.536Z,20.67
2018-06-17T03:15:42.115Z,20.68
2018-06-17T03:17:18.651Z,20.71
2018-06-17T03:18:56.489Z,20.75
2018-06-17T03:20:32.733Z,20.76
2018-06-17T03:22:08.979Z,20.62
2018-06-17T03:23:45.218Z,20.56
2018-06-17T03:25:27.159Z,20.29
2018-06-17T03:27:08.327Z,20.44
2018-06-17T03:28:49.516Z,20.52
2018-06-17T03:30:33.303Z,20.21
2018-06-17T03:32:14.584Z,20.16
2018-06-17T03:33:56.736Z,19.91
2018-06-17T03:35:37.901Z,20.17
2018-06-17T03:37:14.697Z,20.44
2018-06-17T03:38:51.609Z,20.52
2018-06-17T03:40:27.760Z,20.50
2018-06-17T03:42:04.103Z,20.56
2018-06-17T03:43:41.911Z,20.59
2018-06-17T03:45:19.312Z,20.67
2018-06-17T03:46:55.827Z,20.67
2018-06-17T03:48:32.101Z,20.65
2018-06-17T03:50:08.800Z,20.69
2018-06-17T03:51:45.442Z,20.67
2018-06-17T03:53:21.672Z,20.64
2018-06-17T03:54:57.957Z,20.54
2018-06-17T03:56:36.988Z,20.62
2018-06-17T03:58:13.527Z,20.68
2018-06-17T03:59:50.098Z,20.65
2018-06-17T04:01:27.349Z,20.71
2018-06-17T04:03:04.123Z,20.33
2018-06-17T04:04:45.267Z,20.00
2018-06-17T04:06:23.274Z,20.06
2018-06-17T04:08:00.883Z,20.36
2018-06-17T04:09:38.458Z,20.58
2018-06-17T04:11:14.642Z,20.53
2018-06-17T04:12:51.606Z,20.41
2018-06-17T04:14:27.881Z,20.48
2018-06-17T04:16:04.548Z,20.28
2018-06-17T04:17:40.839Z,20.47
2018-06-17T04:19:17.088Z,20.32
2018-06-17T04:20:53.785Z,20.01
2018-06-17T04:22:30.467Z,19.92
2018-06-17T04:24:07.681Z,19.91
2018-06-17T04:25:43.930Z,19.96
2018-06-17T04:27:20.143Z,20.20
2018-06-17T04:28:56.738Z,20.46
2018-06-17T04:30:33.418Z,20.67
2018-06-17T04:32:09.648Z,20.58
2018-06-17T04:35:56.367Z,20.81
2018-06-17T04:37:35.261Z,20.47
2018-06-17T04:39:16.209Z,20.35
2018-06-17T04:40:59.310Z,20.25
2018-06-17T04:42:37.315Z,20.49
2018-06-17T04:44:13.824Z,20.53
2018-06-17T04:45:50.659Z,20.39
2018-06-17T04:47:27.441Z,20.50
2018-06-17T04:49:04.331Z,20.41
2018-06-17T04:50:40.826Z,20.68
2018-06-17T04:52:17.452Z,20.58
2018-06-17T04:53:54.109Z,20.74
2018-06-17T04:55:31.487Z,20.91
2018-06-17T04:57:07.985Z,20.96
2018-06-17T04:58:44.182Z,21.07
2018-06-17T05:00:25.348Z,21.11
2018-06-17T05:02:02.849Z,20.75
2018-06-17T05:03:39.127Z,20.72
2018-06-17T05:05:15.520Z,20.92
2018-06-17T05:06:52.805Z,21.03
2018-06-17T05:08:29.447Z,21.05
2018-06-17T05:10:06.743Z,21.17
2018-06-17T05:11:43.692Z,21.37
2018-06-17T05:13:20.784Z,21.68
2018-06-17T05:14:57.913Z,21.78
2018-06-17T05:16:34.261Z,21.98
2018-06-17T05:18:11.543Z,22.08
2018-06-17T05:19:47.944Z,21.77
2018-06-17T05:21:24.527Z,21.91
2018-06-17T05:23:00.740Z,22.03
2018-06-17T05:24:37.183Z,22.26
2018-06-17T05:26:13.935Z,22.32
2018-06-17T05:27:51.405Z,22.73
2018-06-17T05:29:27.634Z,22.89
2018-06-17T05:31:04.096Z,23.06
2018-06-17T05:32:40.291Z,22.64
2018-06-17T05:34:17.271Z,22.76
2018-06-17T05:35:53.605Z,22.70
2018-06-17T05:37:29.843Z,22.87
2018-06-17T05:39:11.113Z,22.79
2018-06-17T05:40:47.853Z,22.70
2018-06-17T05:42:24.074Z,22.69
2018-06-17T05:44:00.253Z,22.67
2018-06-17T05:45:36.559Z,22.56
2018-06-17T05:47:13.242Z,22.54
2018-06-17T05:48:49.546Z,22.42
2018-06-17T05:50:25.828Z,22.63
2018-06-17T05:52:02.502Z,22.79
2018-06-17T05:53:40.815Z,22.94
2018-06-17T05:55:17.024Z,22.91
2018-06-17T05:56:53.938Z,22.77
2018-06-17T05:58:30.322Z,23.09
2018-06-17T06:00:07.771Z,23.21
2018-06-17T06:01:45.548Z,23.08
2018-06-17T06:03:21.736Z,22.89
2018-06-17T06:04:58.218Z,22.83
2018-06-17T06:06:35.945Z,22.81
2018-06-17T06:08:12.257Z,22.67
2018-06-17T06:09:48.774Z,22.86
2018-06-17T06:11:25.106Z,23.10
2018-06-17T06:13:02.091Z,23.12
2018-06-17T06:14:38.371Z,22.95
2018-06-17T06:16:14.592Z,22.89
2018-06-17T06:17:51.062Z,22.79
2018-06-17T06:19:27.710Z,22.82
2018-06-17T06:21:04.297Z,22.83
2018-06-17T06:22:43.239Z,22.79
2018-06-17T06:24:19.538Z,22.62
2018-06-17T06:25:56.742Z,22.55
2018-06-17T06:27:33.755Z,22.51
2018-06-17T06:29:10.120Z,22.46
2018-06-17T06:30:46.773Z,22.34
2018-06-17T06:32:23.628Z,22.22
2018-06-17T06:34:00.099Z,22.17
2018-06-17T06:35:36.431Z,22.31
2018-06-17T06:37:12.634Z,22.40
2018-06-17T06:38:49.235Z,22.59
2018-06-17T06:40:25.518Z,22.69
2018-06-17T06:42:01.714Z,22.96
2018-06-17T06:43:37.983Z,23.24
2018-06-17T06:45:20.532Z,23.43
2018-06-17T06:46:57.340Z,23.71
2018-06-17T06:48:34.245Z,23.80
2018-06-17T06:50:10.541Z,23.59
2018-06-17T06:51:47.185Z,23.56
2018-06-17T06:53:24.234Z,23.42
2018-06-17T06:55:00.566Z,23.35
2018-06-17T06:56:38.718Z,23.41
2018-06-17T06:58:16.331Z,23.48
2018-06-17T06:59:52.621Z,23.55
2018-06-17T07:01:46.906Z,23.54
2018-06-17T07:03:39.928Z,23.51
2018-06-17T07:05:32.607Z,23.59
2018-06-17T07:07:25.268Z,23.71
2018-06-17T07:11:22.197Z,23.83
2018-06-17T07:12:58.467Z,23.39
2018-06-17T07:14:35.576Z,23.09
2018-06-17T07:16:29.435Z,22.79
2018-06-17T07:18:23.448Z,22.52
2018-06-17T07:20:00.056Z,22.54
2018-06-17T07:21:36.057Z,22.46
2018-06-17T07:23:12.007Z,22.43
2018-06-17T07:24:47.854Z,22.47
2018-06-17T07:26:43.190Z,22.41
2018-06-17T07:28:50.629Z,22.23
2018-06-17T07:30:28.478Z,22.00
2018-06-17T07:32:06.565Z,22.18
2018-06-17T07:33:44.619Z,22.29
2018-06-17T07:35:21.037Z,22.30
2018-06-17T07:36:57.262Z,22.33
2018-06-17T07:38:34.570Z,22.47
2018-06-17T07:40:32.103Z,22.47
2018-06-17T07:42:11.768Z,22.52
2018-06-17T07:43:51.296Z,22.36
2018-06-17T07:45:30.795Z,22.48
2018-06-17T07:47:13.586Z,22.39
2018-06-17T07:50:04.152Z,22.39
2018-06-17T07:51:58.622Z,22.43
2018-06-17T07:53:35.547Z,22.61
2018-06-17T07:55:11.576Z,22.57
2018-06-17T07:56:47.430Z,22.54
2018-06-17T07:58:23.439Z,22.58
2018-06-17T08:00:01.481Z,22.47
2018-06-17T08:01:38.076Z,22.43
2018-06-17T08:03:15.845Z,22.44
2018-06-17T08:04:55.840Z,22.44
2018-06-17T08:06:37.541Z,22.26
2018-06-17T08:08:18.632Z,22.17
2018-06-17T08:09:58.517Z,22.11
2018-06-17T08:11:39.485Z,22.03
2018-06-17T08:13:15.928Z,22.02
2018-06-17T08:14:53.866Z,22.06
2018-06-17T08:16:32.679Z,22.15
2018-06-17T08:18:09.259Z,22.19
2018-06-17T08:19:45.357Z,22.27
2018-06-17T08:21:23.023Z,22.34
2018-06-17T08:23:00.590Z,22.25
2018-06-17T08:24:37.714Z,22.35
2018-06-17T08:26:15.555Z,22.16
2018-06-17T08:27:53.958Z,22.26
2018-06-17T08:29:30.920Z,22.30
2018-06-17T08:31:07.625Z,22.41
2018-06-17T08:32:47.948Z,22.40
2018-06-17T08:34:27.182Z,22.21
2018-06-17T08:36:03.231Z,22.42
2018-06-17T08:37:41.531Z,22.59
2018-06-17T08:39:20.011Z,22.83
2018-06-17T08:40:58.774Z,22.86
2018-06-17T08:42:34.709Z,22.97
2018-06-17T08:44:13.898Z,23.01
2018-06-17T08:45:51.216Z,23.15
2018-06-17T08:47:27.481Z,23.14
2018-06-17T08:49:04.413Z,22.95
2018-06-17T08:50:42.686Z,22.83
2018-06-17T08:52:18.700Z,22.59
2018-06-17T08:54:04.282Z,22.62
2018-06-17T08:55:41.503Z,22.76
2018-06-17T08:57:17.941Z,22.84
2018-06-17T08:58:54.710Z,22.88
2018-06-17T09:00:32.431Z,22.83
2018-06-17T09:02:12.593Z,22.95
2018-06-17T09:03:51.307Z,22.98
2018-06-17T09:05:33.471Z,22.90
2018-06-17T09:07:10.647Z,22.79
2018-06-17T09:08:49.513Z,22.64
2018-06-17T09:10:26.775Z,22.52
2018-06-17T09:12:02.718Z,22.39
2018-06-17T09:13:40.523Z,22.44
2018-06-17T09:15:20.219Z,22.53
2018-06-17T09:17:01.767Z,22.50
2018-06-17T09:18:38.255Z,22.53
2018-06-17T09:20:15.315Z,22.61
2018-06-17T09:21:51.268Z,22.90
2018-06-17T09:23:29.665Z,23.00
2018-06-17T09:25:07.824Z,23.04
2018-06-17T09:26:46.227Z,22.97
2018-06-17T09:28:22.485Z,23.01
2018-06-17T09:30:00.066Z,23.05
2018-06-17T09:31:40.560Z,22.72
2018-06-17T09:33:17.381Z,22.87
2018-06-17T09:34:53.459Z,22.94
2018-06-17T09:36:33.798Z,23.11
2018-06-17T09:38:12.620Z,23.11
2018-06-17T09:39:53.898Z,23.26
2018-06-17T09:41:31.682Z,23.36
2018-06-17T09:43:12.001Z,23.34
2018-06-17T09:44:50.234Z,23.34
2018-06-17T09:46:28.076Z,23.18
2018-06-17T09:48:05.630Z,23.00
2018-06-17T09:49:46.607Z,22.82
2018-06-17T09:51:24.102Z,22.79
2018-06-17T09:53:01.584Z,22.78
2018-06-17T09:54:38.465Z,22.74
2018-06-17T09:56:16.704Z,22.92
2018-06-17T09:57:52.701Z,22.76
2018-06-17T09:59:29.054Z,22.72
2018-06-17T10:01:05.886Z,22.56
2018-06-17T10:02:43.923Z,22.58
2018-06-17T10:04:19.949Z,22.61
2018-06-17T10:05:56.465Z,22.88
2018-06-17T10:07:33.957Z,22.99
2018-06-17T10:09:13.515Z,22.93
2018-06-17T10:10:57.255Z,22.89
2018-06-17T10:12:34.679Z,22.62
2018-06-17T10:14:14.936Z,22.19
2018-06-17T10:15:53.814Z,22.08
2018-06-17T10:19:13.244Z,22.18
2018-06-17T10:20:52.377Z,22.25
2018-06-17T10:22:30.514Z,22.43
2018-06-17T10:24:10.616Z,22.64
2018-06-17T10:25:47.446Z,22.83
2018-06-17T10:27:27.458Z,23.15
2018-06-17T10:29:05.331Z,23.28
2018-06-17T10:30:44.454Z,23.22
2018-06-17T10:32:24.476Z,23.55
2018-06-17T10:34:01.753Z,23.57
2018-06-17T10:35:38.234Z,23.40
2018-06-17T10:37:15.052Z,23.18
2018-06-17T10:38:51.814Z,23.16
2018-06-17T10:40:29.208Z,23.19
2018-06-17T10:42:06.560Z,23.36
2018-06-17T10:43:45.764Z,23.25
2018-06-17T10:45:25.670Z,22.88
2018-06-17T10:47:02.804Z,22.76
2018-06-17T10:48:40.613Z,22.60
2018-06-17T10:50:18.258Z,22.59
2018-06-17T10:51:55.525Z,22.72
2018-06-17T10:53:34.473Z,22.79
2018-06-17T10:55:13.978Z,22.99
2018-06-17T10:56:51.766Z,23.20
2018-06-17T10:58:29.997Z,23.15
2018-06-17T11:00:10.639Z,22.92
2018-06-17T11:01:47.204Z,22.68
2018-06-17T11:03:24.877Z,22.75
2018-06-17T11:05:02.399Z,22.83
2018-06-17T11:06:39.804Z,23.16
2018-06-17T11:08:17.525Z,23.10
2018-06-17T11:09:54.595Z,23.08
2018-06-17T11:11:32.400Z,23.02
2018-06-17T11:13:12.747Z,23.20
2018-06-17T11:14:50.496Z,23.27
2018-06-17T11:16:28.081Z,23.46
2018-06-17T11:18:04.752Z,23.62
2018-06-17T11:19:44.575Z,23.39
2018-06-17T11:21:22.570Z,23.38
2018-06-17T11:22:59.843Z,23.44
2018-06-17T11:24:36.291Z,23.24
2018-06-17T11:26:13.612Z,23.25
2018-06-17T11:27:53.493Z,23.58
2018-06-17T11:29:30.563Z,23.79
2018-06-17T11:31:08.527Z,23.68
2018-06-17T11:32:45.486Z,23.64
2018-06-17T11:34:24.587Z,23.57
2018-06-17T11:36:05.180Z,23.65
2018-06-17T11:37:45.103Z,23.46
2018-06-17T11:39:22.280Z,23.28
2018-06-17T11:41:00.207Z,23.15
2018-06-17T11:42:37.309Z,23.20
2018-06-17T11:44:14.266Z,23.23
2018-06-17T11:45:53.065Z,23.43
2018-06-17T11:47:30.383Z,23.64
2018-06-17T11:49:07.211Z,23.86
2018-06-17T11:50:44.483Z,23.89
2018-06-17T11:52:21.735Z,23.98
2018-06-17T11:54:02.873Z,24.19
2018-06-17T11:55:40.092Z,24.07
2018-06-17T11:57:16.893Z,23.85
2018-06-17T11:58:55.199Z,23.68
2018-06-17T12:00:31.747Z,23.55
2018-06-17T12:02:09.264Z,23.60
2018-06-17T12:03:47.593Z,23.66
2018-06-17T12:05:23.999Z,23.59
2018-06-17T12:07:00.335Z,23.56
2018-06-17T12:08:37.357Z,23.49
2018-06-17T12:10:13.786Z,23.30
2018-06-17T12:11:50.143Z,23.23
2018-06-17T12:13:27.292Z,23.03
2018-06-17T12:15:05.497Z,22.67
2018-06-17T12:16:42.600Z,22.75
2018-06-17T12:18:19.899Z,22.88
2018-06-17T12:19:58.050Z,22.95
2018-06-17T12:21:36.186Z,22.47
2018-06-17T12:23:15.172Z,22.52
2018-06-17T12:24:52.882Z,22.57
2018-06-17T12:26:31.440Z,22.73
2018-06-17T12:28:11.820Z,22.76
2018-06-17T12:29:53.872Z,22.88
2018-06-17T12:31:32.144Z,22.98
2018-06-17T12:33:08.497Z,23.00
2018-06-17T12:34:48.496Z,23.06
2018-06-17T12:36:28.295Z,23.03
2018-06-17T12:38:13.550Z,22.94
2018-06-17T12:45:53.756Z,22.98
2018-06-17T12:47:32.537Z,22.62
2018-06-17T12:49:10.358Z,22.44
2018-06-17T12:50:49.910Z,22.07
2018-06-17T12:52:26.580Z,21.86
2018-06-17T12:54:03.975Z,21.90
2018-06-17T12:55:40.336Z,22.07
2018-06-17T12:57:20.698Z,22.24
2018-06-17T12:59:02.428Z,22.36
2018-06-17T13:00:39.933Z,22.58
2018-06-17T13:02:16.442Z,22.33
2018-06-17T13:03:55.591Z,22.13
2018-06-17T13:05:37.986Z,22.03
2018-06-17T13:07:14.335Z,22.09
2018-06-17T13:08:51.250Z,22.27
2018-06-17T13:10:27.799Z,22.57
2018-06-17T13:12:05.660Z,22.79
2018-06-17T13:13:48.435Z,22.91
2018-06-17T13:15:26.646Z,23.13
2018-06-17T13:17:05.147Z,23.03
2018-06-17T13:20:25.821Z,23.10
2018-06-17T13:22:03.584Z,23.26
2018-06-17T13:23:42.392Z,23.35
2018-06-17T13:25:23.822Z,23.33
2018-06-17T13:27:00.732Z,23.30
2018-06-17T13:28:37.683Z,23.16
2018-06-17T13:30:18.692Z,23.35
2018-06-17T13:31:55.904Z,23.43
2018-06-17T13:33:35.197Z,23.44
2018-06-17T13:35:15.222Z,23.37
2018-06-17T13:36:54.596Z,23.27
2018-06-17T13:38:31.420Z,23.36
2018-06-17T13:40:08.366Z,23.37
2018-06-17T13:41:46.437Z,23.62
2018-06-17T13:43:26.943Z,23.74
2018-06-17T13:45:04.296Z,23.87
2018-06-17T13:46:40.752Z,23.63
2018-06-17T13:48:22.229Z,23.37
2018-06-17T13:50:03.538Z,23.23
2018-06-17T13:51:40.563Z,23.08
2018-06-17T13:53:19.454Z,22.91
2018-06-17T13:54:57.215Z,23.00
2018-06-17T13:56:36.575Z,22.91
2018-06-17T13:58:13.661Z,22.92
2018-06-17T13:59:58.381Z,22.89
2018-06-17T14:01:43.464Z,22.99
2018-06-17T14:03:26.225Z,23.08
2018-06-17T14:05:07.412Z,22.82
2018-06-17T14:06:59.755Z,22.60
2018-06-17T14:08:41.737Z,22.59
2018-06-17T14:12:17.555Z,23.01
2018-06-17T14:13:59.707Z,23.27
2018-06-17T14:15:37.615Z,23.21
2018-06-17T14:17:17.517Z,23.26
2018-06-17T14:19:03.970Z,23.48
2018-06-17T14:20:43.543Z,23.28
2018-06-17T14:22:26.411Z,23.10
2018-06-17T14:24:07.720Z,22.71
2018-06-17T14:25:48.588Z,22.62
2018-06-17T14:27:26.540Z,22.89
2018-06-17T14:29:06.706Z,23.08
2018-06-17T14:30:45.488Z,23.38
2018-06-17T14:32:23.924Z,23.68
2018-06-17T14:34:02.671Z,23.68
2018-06-17T14:35:40.283Z,23.80
2018-06-17T14:37:20.159Z,23.89
2018-06-17T14:38:59.487Z,23.63
2018-06-17T14:40:40.455Z,23.47
2018-06-17T14:42:24.596Z,23.33
2018-06-17T14:44:06.875Z,23.12
2018-06-17T14:47:55.392Z,23.10
2018-06-17T14:49:37.440Z,23.04
2018-06-17T14:51:22.310Z,23.06
2018-06-17T14:53:07.211Z,23.14
2018-06-17T14:54:50.051Z,23.10
2018-06-17T14:56:41.245Z,23.13
2018-06-17T14:58:20.563Z,23.23
2018-06-17T14:59:58.323Z,23.34
2018-06-17T15:01:37.762Z,23.24
2018-06-17T15:03:15.127Z,22.89
2018-06-17T15:04:56.993Z,22.76
2018-06-17T15:06:33.370Z,22.82
2018-06-17T15:08:09.715Z,22.99
2018-06-17T15:09:46.081Z,22.89
2018-06-17T15:11:24.552Z,22.67
2018-06-17T15:13:01.696Z,22.72
2018-06-17T15:16:15.317Z,22.94
2018-06-17T15:17:55.423Z,23.06
2018-06-17T15:19:33.346Z,23.26
2018-06-17T15:21:10.609Z,23.44
2018-06-17T15:22:48.427Z,23.32
2018-06-17T15:24:26.269Z,23.18
2018-06-17T15:26:02.699Z,22.94
2018-06-17T15:27:39.232Z,22.84
2018-06-17T15:29:18.119Z,22.77
2018-06-17T15:31:00.996Z,22.91
2018-06-17T15:32:44.148Z,22.82
2018-06-17T15:34:26.250Z,22.86
2018-06-17T15:36:07.864Z,22.90
2018-06-17T15:37:50.155Z,22.79
2018-06-17T15:39:33.355Z,22.79
2018-06-17T15:41:16.897Z,22.68
2018-06-17T15:42:55.227Z,22.90
2018-06-17T15:44:33.177Z,22.59
2018-06-17T15:46:11.439Z,22.61
2018-06-17T15:47:52.304Z,22.77
2018-06-17T15:49:33.520Z,22.75
2018-06-17T15:51:13.527Z,22.77
2018-06-17T15:52:52.632Z,23.10
2018-06-17T15:54:37.507Z,23.15
2018-06-17T15:56:16.676Z,23.25
2018-06-17T15:57:55.465Z,23.37
2018-06-17T15:59:34.593Z,23.46
2018-06-17T16:01:12.524Z,23.37
2018-06-17T16:02:51.381Z,23.23
2018-06-17T16:04:30.532Z,23.16
2018-06-17T16:06:08.800Z,23.22
2018-06-17T16:07:51.297Z,23.26
2018-06-17T16:09:31.450Z,23.07
2018-06-17T16:11:08.625Z,23.04
2018-06-17T16:12:57.782Z,22.89
2018-06-17T16:14:42.196Z,22.62
2018-06-17T16:16:24.925Z,22.67
2018-06-17T16:18:11.705Z,22.66
2018-06-17T16:20:02.135Z,22.81
2018-06-17T16:21:42.509Z,22.95
2018-06-17T16:23:23.612Z,22.91
2018-06-17T16:25:01.069Z,22.89
2018-06-17T16:26:41.516Z,22.83
2018-06-17T16:28:20.908Z,22.80
2018-06-17T16:30:06.116Z,22.71
2018-06-17T16:31:56.679Z,22.75
2018-06-17T16:33:38.579Z,23.02
2018-06-17T16:35:17.684Z,23.09
2018-06-17T16:37:07.244Z,22.97
2018-06-17T16:38:45.733Z,22.84
2018-06-17T16:40:24.031Z,22.60
2018-06-17T16:42:02.978Z,22.59
2018-06-17T16:43:39.796Z,22.30
2018-06-17T16:45:19.600Z,22.34
2018-06-17T16:46:58.281Z,22.47
2018-06-17T16:48:36.240Z,22.43
2018-06-17T16:50:15.997Z,22.42
2018-06-17T16:52:00.549Z,22.52
2018-06-17T16:53:43.289Z,22.48
2018-06-17T16:55:33.368Z,22.54
2018-06-17T16:57:14.586Z,22.65
2018-06-17T16:58:59.309Z,22.79
2018-06-17T17:00:38.263Z,22.60
2018-06-17T17:02:15.627Z,22.38
2018-06-17T17:03:52.077Z,22.20
2018-06-17T17:05:30.665Z,22.14
2018-06-17T17:07:07.894Z,22.05
2018-06-17T17:08:44.199Z,21.98
2018-06-17T17:10:22.584Z,22.04
2018-06-17T17:12:00.443Z,22.12
2018-06-17T17:13:37.180Z,22.08
2018-06-17T17:15:14.880Z,22.34
2018-06-17T17:16:52.909Z,22.28
2018-06-17T17:18:31.597Z,22.46
2018-06-17T17:20:10.156Z,22.53
2018-06-17T17:21:50.070Z,22.64
2018-06-17T17:23:28.294Z,22.58
2018-06-17T17:25:05.886Z,22.72
2018-06-17T17:26:43.776Z,22.79
2018-06-17T17:28:29.791Z,22.59
2018-06-17T17:30:06.951Z,22.57
2018-06-17T17:31:51.886Z,22.67
2018-06-17T17:33:34.258Z,22.78
2018-06-17T17:35:17.268Z,22.98
2018-06-17T17:36:58.995Z,22.98
2018-06-17T17:38:40.856Z,23.08
2018-06-17T17:40:23.229Z,23.22
2018-06-17T17:42:01.762Z,23.12
2018-06-17T17:43:39.994Z,22.84
2018-06-17T17:45:30.508Z,22.91
2018-06-17T17:47:14.100Z,23.04
2018-06-17T17:48:53.485Z,23.05
2018-06-17T17:50:30.577Z,22.98
2018-06-17T17:52:06.992Z,23.07
2018-06-17T17:53:44.786Z,23.16
2018-06-17T17:55:21.685Z,23.23
2018-06-17T17:56:58.013Z,23.31
2018-06-17T17:58:35.652Z,23.39
2018-06-17T18:00:16.222Z,23.33
2018-06-17T18:01:55.122Z,23.37
2018-06-17T18:03:33.656Z,23.29
2018-06-17T18:05:12.219Z,23.19
2018-06-17T18:06:55.776Z,23.09
2018-06-17T18:08:33.669Z,22.54
2018-06-17T18:10:10.840Z,22.18
2018-06-17T18:11:49.487Z,22.04
2018-06-17T18:13:27.841Z,22.44
2018-06-17T18:15:12.580Z,22.62
2018-06-17T18:16:54.557Z,22.61
2018-06-17T18:18:33.157Z,22.57
2018-06-17T18:20:11.980Z,22.58
2018-06-17T18:23:45.543Z,22.57
2018-06-17T18:25:29.312Z,22.59
2018-06-17T18:27:18.465Z,22.85
2018-06-17T18:29:01.934Z,22.89
2018-06-17T18:32:23.613Z,23.01
2018-06-17T18:34:04.901Z,22.94
2018-06-17T18:35:49.889Z,22.65
2018-06-17T18:37:28.660Z,22.69
2018-06-17T18:39:06.998Z,22.81
2018-06-17T18:40:45.282Z,22.69
2018-06-17T18:42:25.653Z,22.71
2018-06-17T18:44:04.843Z,22.54
2018-06-17T18:45:42.219Z,22.50
2018-06-17T18:47:19.204Z,22.38
2018-06-17T18:48:56.709Z,22.49
2018-06-17T18:50:35.622Z,22.57
2018-06-17T18:52:12.782Z,22.62
2018-06-17T18:53:49.268Z,22.72
2018-06-17T18:55:26.942Z,22.69
2018-06-17T18:57:05.659Z,22.61
2018-06-17T18:58:44.306Z,22.61
2018-06-17T19:00:32.576Z,22.67
2018-06-17T19:02:10.276Z,22.65
2018-06-17T19:03:47.965Z,22.81
2018-06-17T19:05:25.710Z,22.93
2018-06-17T19:07:03.550Z,22.89
2018-06-17T19:08:48.658Z,22.89
2018-06-17T19:10:30.096Z,22.77
2018-06-17T19:12:11.847Z,22.94
2018-06-17T19:14:02.284Z,23.03
2018-06-17T19:15:45.762Z,22.94
2018-06-17T19:18:34.470Z,22.68
2018-06-17T19:20:16.160Z,22.92
2018-06-17T19:21:52.512Z,22.95
2018-06-17T19:23:30.281Z,22.96
2018-06-17T19:25:08.380Z,23.03
2018-06-17T19:26:49.249Z,22.94
2018-06-17T19:28:26.435Z,22.94
2018-06-17T19:30:08.274Z,22.92
2018-06-17T19:31:46.687Z,22.91
2018-06-17T19:33:24.676Z,22.51
2018-06-17T19:35:06.358Z,22.63
2018-06-17T19:36:45.255Z,22.84
2018-06-17T19:38:22.564Z,22.87
2018-06-17T19:39:59.457Z,22.84
2018-06-17T19:41:39.695Z,22.98
2018-06-17T19:43:18.713Z,22.97
2018-06-17T19:44:56.260Z,22.92
2018-06-17T19:46:34.555Z,22.68
2018-06-17T19:48:12.683Z,22.84
2018-06-17T19:49:53.868Z,22.93
2018-06-17T19:51:38.007Z,23.04
2018-06-17T19:53:20.306Z,22.93
2018-06-17T19:55:03.508Z,22.89
2018-06-17T19:56:46.252Z,22.68
2018-06-17T19:58:33.309Z,22.64
2018-06-17T20:00:24.285Z,22.66
2018-06-17T20:02:08.276Z,22.59
2018-06-17T20:03:46.152Z,22.34
2018-06-17T20:05:24.445Z,22.53
2018-06-17T20:07:04.641Z,22.85
2018-06-17T20:08:47.020Z,22.98
2018-06-17T20:10:26.029Z,23.14
2018-06-17T20:12:02.652Z,23.23
2018-06-17T20:13:47.176Z,23.22
2018-06-17T20:21:32.973Z,23.16
2018-06-17T20:23:16.325Z,22.30
2018-06-17T20:24:58.714Z,22.30
2018-06-17T20:26:39.342Z,22.10
2018-06-17T20:28:18.676Z,22.07
2018-06-17T20:29:56.804Z,22.23
2018-06-17T20:33:50.758Z,22.11
2018-06-17T20:35:32.679Z,22.25
2018-06-17T20:37:15.519Z,22.19
2018-06-17T20:38:59.695Z,22.51
2018-06-17T20:40:43.939Z,22.52
2018-06-17T20:42:25.977Z,22.78
2018-06-17T20:44:07.769Z,22.82
2018-06-17T20:45:45.496Z,22.66
2018-06-17T20:47:32.866Z,22.51
2018-06-17T20:49:10.702Z,22.64
2018-06-17T20:50:51.548Z,22.54
2018-06-17T20:52:30.047Z,22.18
2018-06-17T20:54:07.907Z,22.27
2018-06-17T20:55:47.464Z,22.16
2018-06-17T20:57:25.530Z,21.85
2018-06-17T20:59:03.976Z,21.65
2018-06-17T21:00:45.439Z,21.57
2018-06-17T21:02:21.841Z,21.61
2018-06-17T21:04:00.699Z,21.77
2018-06-17T21:05:42.479Z,21.65
2018-06-17T21:07:24.229Z,21.95
2018-06-17T21:09:09.444Z,22.30
2018-06-17T21:10:55.425Z,22.38
2018-06-17T21:12:33.506Z,22.33
2018-06-17T21:14:11.629Z,22.15
2018-06-17T21:15:51.353Z,22.27
2018-06-17T21:17:32.975Z,22.07
2018-06-17T21:19:14.392Z,21.85
2018-06-17T21:22:43.504Z,22.05
2018-06-17T21:24:28.440Z,21.81
2018-06-17T21:26:10.597Z,21.65
2018-06-17T21:27:50.868Z,21.71
2018-06-17T21:29:34.611Z,22.15
2018-06-17T21:31:15.280Z,22.51
2018-06-17T21:32:56.842Z,22.58
2018-06-17T21:34:35.009Z,22.78
2018-06-17T21:36:13.745Z,22.87
2018-06-17T21:37:54.578Z,22.88
2018-06-17T21:39:38.701Z,22.82
2018-06-17T21:41:16.241Z,22.76
2018-06-17T21:42:53.678Z,22.75
2018-06-17T21:44:31.719Z,22.76
2018-06-17T21:48:11.411Z,22.68
2018-06-17T21:49:49.959Z,22.76
2018-06-17T21:51:27.488Z,22.55
2018-06-17T21:53:05.003Z,22.61